AirNav   ProFlight Series 2 Aviation Headset
 
 476 users online  

FA73 Oak Harbor Seaplane Base
Haines City, Florida, USA

GOING TO HAINES CITY?


FAA INFORMATION EFFECTIVE 13 AUGUST 2020

Location

FAA Identifier: FA73
Lat/Long: 28-07-44.0610N 081-41-16.2770W
28-07.734350N 081-41.271283W
28.1289058,-81.6878547
(estimated)
Elevation: 130 ft. / 40 m (estimated)
Variation: 03W (1985)
From city: 3 miles NW of HAINES CITY, FL
Time zone: UTC -4 (UTC -5 during Standard Time)
Zip code: 33844

Seaplane Base Operations

Seaplane Base use: Private use. Permission required prior to landing
Activation date: 09/1971
Control tower: no
ARTCC: JACKSONVILLE CENTER
FSS: SAINT PETERSBURG FLIGHT SERVICE STATION
Attendance: 0800-1700
Wind indicator: yes
Segmented circle: no

Seaplane Base Communications

WX ASOS at GIF (5 nm SW): 133.675 (863-956-2097)
WX AWOS-3 at BOW (12 nm SW): 123.775 (863-533-9004)
WX AWOS-3 at X07 (15 nm S): 124.225 (863-678-1334)
WX AWOS-3PT at ISM (16 nm NE): 128.775 (407-847-0533)
WX AWOS-3PT at LAL (19 nm SW): 118.025 (863-834-2030)

Nearby radio navigation aids

VOR radial/distance  VOR name  Freq  Var
LALr063/19.3LAKELAND VORTAC116.0001E
ORLr217/31.0ORLANDO VORTAC112.2000E

Seaplane Base Services

Airframe service: NONE
Powerplant service: NONE

Runway Information

Runway E/W

Dimensions: 7000 x 2000 ft. / 2134 x 610 m
Surface: water
RUNWAY E  RUNWAY W
Traffic pattern: leftleft
Obstructions: 358 ft. tower, 10560 ft. from runwaynone

Runway NW/SE

Dimensions: 7000 x 2000 ft. / 2134 x 610 m
Surface: water
RUNWAY NW  RUNWAY SE
Traffic pattern: leftleft

Seaplane Base Ownership and Management from official FAA records

Ownership: Privately-owned
Owner: JAMES ANDERSON
OAK HARBOR
HAINES CITY, FL 33844
Phone (863) 289-6661
Manager: JAMES ANDERSON
OAK HARBOR
HAINES CITY, FL 33844
Phone (863) 289-6661

Seaplane Base Operational Statistics

Aircraft based on the field: 1
Single engine airplanes: 1
    

Additional Remarks

FOR CD CTC ORLANDO APCH AT 407-852-7553.

Instrument Procedures

There are no published instrument procedures at FA73.

Some nearby airports with instrument procedures:

KGIF - Winter Haven Regional Airport (5 nm SW)
KBOW - Bartow Executive Airport (12 nm SW)
X07 - Lake Wales Municipal Airport (15 nm S)
KISM - Kissimmee Gateway Airport (16 nm NE)
KLAL - Lakeland Linder International Airport (19 nm SW)
 
Loc | Ops | Rwys | IFR | FBO | Links
Com | Nav | Svcs | Stats | Notes


 
Area around FA73 (Oak Harbor Seaplane Base)
 
Road maps at: MapQuest Bing Google
 
Aerial photo
WARNING: Photo may not be current or correct
Aerial photo of FA73 (Oak Harbor Seaplane Base)
Do you have a better or more recent aerial photo of Oak Harbor Seaplane Base that you would like to share? If so, please send us your photo.

 
Sectional chart

 
Airport distance calculator
Flying to Oak Harbor Seaplane Base? Find the distance to fly.

From to FA73

Sunrise and sunset
Times for 13-Aug-2020
 Local
(UTC-4)
 Zulu
(UTC)
Morning civil twilight06:3210:32
Sunrise06:5710:57
Sunset20:0600:06
Evening civil twilight20:3000:30

Current date and time
Zulu (UTC)  13-Aug-2020 10:20:17
Local (UTC-4)  13-Aug-2020 06:20:17
 
METAR
KGIF 
5nm SW 
130953Z AUTO 12005KT 10SM CLR 26/24 A3002 RMK AO2 SLP164 T02610244
KBOW 
12nm S 
130955Z AUTO 00000KT 10SM CLR 25/24 A3001 RMK AO2
KX07 
15nm S 
130935Z AUTO 00000KT 10SM CLR 25/25 A3003 RMK A01
KISM 
16nm NE 
130956Z AUTO 14004KT 10SM CLR 26/25 A3002 RMK AO2 SLP165 T02610250
KLAL 
20nm SW 
130950Z 00000KT 10SM SKC 25/24 A3002
TAF
KISM 
16nm NE 
130530Z 1306/1406 00000KT P6SM BKN250 FM131400 19006KT P6SM SCT035 SCT080 SCT250 FM131830 19010KT P6SM VCTS SCT035CB SCT080 BKN200 TEMPO 1319/1322 3SM TSRA BKN030CB BKN060 FM140100 19005KT P6SM FEW040 SCT100 BKN250 FM140400 VRB02KT P6SM SCT250
KLAL 
20nm SW 
130527Z 1306/1406 VRB03KT P6SM SCT250 FM131500 VRB04KT P6SM SCT030 SCT250 FM131800 VRB04KT P6SM VCTS SCT040CB BKN250 FM140000 VRB03KT P6SM SCT040 BKN250 AMD NOT SKED TIL 131100
NOTAMs
Click for the latest NOTAMs
NOTAMs are issued by the DoD/FAA and will open in a separate window not controlled by AirNav.

 

 
 

Would you like to see your business listed on this page?

 If your business provides an interesting product or service to pilots, flight crews, aircraft, or users of the Oak Harbor Seaplane Base, you should consider listing it here.  To start the listing process, click on the button below
 
Add a business
 

Other Pages about Oak Harbor Seaplane Base

Update a link
 
Copyright © AirNav, LLC. All rights reserved. Privacy Policy  Contact